Pagina principale
METAR-TAF:

METAR-TAF

Aeroporti :

Alessandria-Borg El Arab, Egitto

latitudine: 31-31N, longitudine: 030-10E, altezza: 54 m

Osservazione

Il bollettino è stato emesso 2 ore e 13 minuti fa, alle 11:00 UTC
Vento 12 kt da nord-ovest
Temperature 29°C
Umidità 62%
Pressione 1015 hPa
Visibilità 10 km o più
nessuna nube inferiore a 1500 m e nessun cumulonembo

METAR: HEBA 141100Z 31012KT CAVOK 29/21 Q1015 NOSIG

Ora: 15:13 (13:13 UTC)

Previsione

Il bollettino è stato emesso 2 ore e 13 minuti fa, alle 11:00 UTC
Previsione valida dal 14 alle 12 UTC al 15 alle 18 UTC
Vento 12 kt da nord/nord-ovest
Visibilità 10 km o più
Poco nuvoloso ad un'altezza di 2000 ft

TAF: HEBA 141100Z 1412/1518 33012KT 9999 FEW020

Osservazioni e previsioni meteorologiche di più di 4000 aeroporti (messaggi METAR e TAF).

Le stazioni disponibili sono rappresentate dai dischi gialli e rossi sulla carta.

Puntare il mouse per vedere il nome della stazione.

Clicca sopra per visualizzare le osservazioni e previsioni meteorologiche.

Per cambiare la mappa : fare clic sui pulsanti verdi con una croce nera per ingrandire, il pulsante verde con un trattino per diminuire, o sulla freccia verde per le mappe adiacenti.


METAR-TAF: